Superferry II — SWKV — position and weather

sailwx.info

Track history (hours):
 
Tides and Currents Weather Stations Pressure Air Temp Water Temp Dewpoint Dewpoint Depression Visibility Wind Speed Wind Dir Waves Ship Positions

Superferry II

Last reported at 2017-May-23 12:28 UTC. Time now 2017-May-23 12:42 UTC.
Position N 37°43' E 024°53'.

Length 122 m; draft 4.7 m.

Type: Passenger vessel. MMSI: 237001000.

Date/timePositionNaut miles runAvg speedWind from/ knotsBaromVisibWave heightAir tempDewpointWater temp
2017-May-23 12:28N 37°43' E 024°53'919.9
2017-May-23 12:01N 37°36' E 025°02'814.8
2017-May-23 11:30N 37°32' E 025°09'612.9
2017-May-23 11:00N 37°29' E 025°16'3 5.5
2017-May-23 10:30N 37°28' E 025°19'0 0.0
2017-May-23 10:01N 37°28' E 025°19'0 0.0
2017-May-23 09:31N 37°28' E 025°19'713.1
2017-May-23 09:00N 37°31' E 025°12'510.2
2017-May-23 08:30N 37°33' E 025°06'5216.6
2017-May-23 05:24N 37°59' E 024°10'7 0.5
2017-May-22 15:25N 38°01' E 024°01'4315.3
2017-May-22 12:37N 37°45' E 024°51'320.1
2017-May-22 12:28N 37°43' E 024°54'920.0
2017-May-22 12:01N 37°36' E 025°02'714.5
2017-May-22 11:30N 37°32' E 025°09'713.6
2017-May-22 11:00N 37°29' E 025°17'2 4.7
2017-May-22 10:30N 37°28' E 025°19'0 0.0
2017-May-22 10:00N 37°28' E 025°19'0 0.0
2017-May-22 09:30N 37°28' E 025°19'611.9
2017-May-22 09:00N 37°30' E 025°12'5 9.2
2017-May-22 08:31N 37°33' E 025°08'5516.4
2017-May-22 05:11N 37°60' E 024°08'419.8
2017-May-22 05:00N 38°01' E 024°03'2 0.2
2017-May-21 15:26N 38°01' E 024°01'4315.1
2017-May-21 12:36N 37°45' E 024°51'820.7
2017-May-21 12:14N 37°39' E 024°58'420.0
2017-May-21 12:00N 37°36' E 025°02'714.6
2017-May-21 11:30N 37°32' E 025°09'611.3
2017-May-21 11:01N 37°29' E 025°15'4 7.1
2017-May-21 10:30N 37°28' E 025°19'0 0.0
2017-May-21 10:00N 37°28' E 025°19'0 0.0
2017-May-21 09:30N 37°28' E 025°19'510.7
2017-May-21 09:01N 37°30' E 025°13'510.1
2017-May-21 08:30N 37°32' E 025°08'5416.4
2017-May-21 05:14N 37°60' E 024°09'419.5
2017-May-21 05:00N 38°01' E 024°03'2 0.2
2017-May-20 15:26N 38°01' E 024°01'4315.1
2017-May-20 12:36N 37°45' E 024°51'220.2
2017-May-20 12:30N 37°43' E 024°53'1020.3
2017-May-20 12:00N 37°36' E 025°02'714.4
2017-May-20 11:30N 37°32' E 025°09'713.4
2017-May-20 11:00N 37°29' E 025°16'2 5.0
2017-May-20 10:30N 37°28' E 025°19'0 0.0
2017-May-20 10:00N 37°28' E 025°19'510.3
2017-May-20 09:30N 37°30' E 025°13'4 8.2
2017-May-20 09:01N 37°32' E 025°09'5516.2
2017-May-20 05:38N 37°59' E 024°09'219.7
2017-May-20 05:30N 38°00' E 024°06'  
2017-May-15 15:39N 38°01' E 024°01'2 9.5
2017-May-15 15:29N 38°01' E 024°03'4114.6
2017-May-15 12:39N 37°45' E 024°51'320.3
2017-May-15 12:30N 37°43' E 024°54'1020.2
2017-May-15 12:01N 37°36' E 025°02'712.9
2017-May-15 11:30N 37°32' E 025°09'612.6
2017-May-15 11:00N 37°29' E 025°16'3 5.7
2017-May-15 10:30N 37°28' E 025°19'0 0.0
2017-May-15 10:00N 37°28' E 025°19'0 0.0
2017-May-15 09:31N 37°28' E 025°19'713.4
2017-May-15 09:00N 37°31' E 025°12'510.3
2017-May-15 08:30N 37°33' E 025°06'5316.0
2017-May-15 05:13N 37°60' E 024°08'419.7
2017-May-15 05:00N 38°01' E 024°03'2 0.2
2017-May-14 15:26N 38°01' E 024°01'4315.4
2017-May-14 12:40N 37°45' E 024°51'420.4
2017-May-14 12:28N 37°42' E 024°54'920.0
2017-May-14 12:01N 37°36' E 025°02'613.0
2017-May-14 11:30N 37°32' E 025°09'611.8
2017-May-14 11:00N 37°29' E 025°16'3 6.5
2017-May-14 10:30N 37°28' E 025°19'0 0.0
2017-May-14 10:00N 37°28' E 025°19'0 0.0
2017-May-14 09:30N 37°28' E 025°19'611.6
2017-May-14 09:00N 37°30' E 025°13'4 8.5
2017-May-14 08:31N 37°32' E 025°08'5416.5
2017-May-14 05:14N 37°60' E 024°09'419.6
2017-May-14 05:00N 38°01' E 024°03'2 0.2
2017-May-13 15:23N 38°01' E 024°01'4415.5
2017-May-13 12:31N 37°44' E 024°52'  
Track history (hours):
 
Tides and Currents Weather Stations Pressure Air Temp Water Temp Dewpoint Dewpoint Depression Visibility Wind Speed Wind Dir Waves Ship Positions

Superferry II

Last reported at 2017-May-23 12:28 UTC. Time now 2017-May-23 12:42 UTC.
Position N 37°43' E 024°53'.

Length 122 m; draft 4.7 m.

Type: Passenger vessel. MMSI: 237001000.

Date/timePositionNaut miles runAvg speedWind from/ knotsBaromVisibWave heightAir tempDewpointWater temp
2017-May-23 12:28N 37°43' E 024°53'919.9
2017-May-23 12:01N 37°36' E 025°02'814.8
2017-May-23 11:30N 37°32' E 025°09'612.9
2017-May-23 11:00N 37°29' E 025°16'3 5.5
2017-May-23 10:30N 37°28' E 025°19'0 0.0
2017-May-23 10:01N 37°28' E 025°19'0 0.0
2017-May-23 09:31N 37°28' E 025°19'713.1
2017-May-23 09:00N 37°31' E 025°12'510.2
2017-May-23 08:30N 37°33' E 025°06'5216.6
2017-May-23 05:24N 37°59' E 024°10'7 0.5
2017-May-22 15:25N 38°01' E 024°01'4315.3
2017-May-22 12:37N 37°45' E 024°51'320.1
2017-May-22 12:28N 37°43' E 024°54'920.0
2017-May-22 12:01N 37°36' E 025°02'714.5
2017-May-22 11:30N 37°32' E 025°09'713.6
2017-May-22 11:00N 37°29' E 025°17'2 4.7
2017-May-22 10:30N 37°28' E 025°19'0 0.0
2017-May-22 10:00N 37°28' E 025°19'0 0.0
2017-May-22 09:30N 37°28' E 025°19'611.9
2017-May-22 09:00N 37°30' E 025°12'5 9.2
2017-May-22 08:31N 37°33' E 025°08'5516.4
2017-May-22 05:11N 37°60' E 024°08'419.8
2017-May-22 05:00N 38°01' E 024°03'2 0.2
2017-May-21 15:26N 38°01' E 024°01'4315.1
2017-May-21 12:36N 37°45' E 024°51'820.7
2017-May-21 12:14N 37°39' E 024°58'420.0
2017-May-21 12:00N 37°36' E 025°02'714.6
2017-May-21 11:30N 37°32' E 025°09'611.3
2017-May-21 11:01N 37°29' E 025°15'4 7.1
2017-May-21 10:30N 37°28' E 025°19'0 0.0
2017-May-21 10:00N 37°28' E 025°19'0 0.0
2017-May-21 09:30N 37°28' E 025°19'510.7
2017-May-21 09:01N 37°30' E 025°13'510.1
2017-May-21 08:30N 37°32' E 025°08'5416.4
2017-May-21 05:14N 37°60' E 024°09'419.5
2017-May-21 05:00N 38°01' E 024°03'2 0.2
2017-May-20 15:26N 38°01' E 024°01'4315.1
2017-May-20 12:36N 37°45' E 024°51'220.2
2017-May-20 12:30N 37°43' E 024°53'1020.3
2017-May-20 12:00N 37°36' E 025°02'714.4
2017-May-20 11:30N 37°32' E 025°09'713.4
2017-May-20 11:00N 37°29' E 025°16'2 5.0
2017-May-20 10:30N 37°28' E 025°19'0 0.0
2017-May-20 10:00N 37°28' E 025°19'510.3
2017-May-20 09:30N 37°30' E 025°13'4 8.2
2017-May-20 09:01N 37°32' E 025°09'5516.2
2017-May-20 05:38N 37°59' E 024°09'219.7
2017-May-20 05:30N 38°00' E 024°06'  
2017-May-15 15:39N 38°01' E 024°01'2 9.5
2017-May-15 15:29N 38°01' E 024°03'4114.6
2017-May-15 12:39N 37°45' E 024°51'320.3
2017-May-15 12:30N 37°43' E 024°54'1020.2
2017-May-15 12:01N 37°36' E 025°02'712.9
2017-May-15 11:30N 37°32' E 025°09'612.6
2017-May-15 11:00N 37°29' E 025°16'3 5.7
2017-May-15 10:30N 37°28' E 025°19'0 0.0
2017-May-15 10:00N 37°28' E 025°19'0 0.0
2017-May-15 09:31N 37°28' E 025°19'713.4
2017-May-15 09:00N 37°31' E 025°12'510.3
2017-May-15 08:30N 37°33' E 025°06'5316.0
2017-May-15 05:13N 37°60' E 024°08'419.7
2017-May-15 05:00N 38°01' E 024°03'2 0.2
2017-May-14 15:26N 38°01' E 024°01'4315.4
2017-May-14 12:40N 37°45' E 024°51'420.4
2017-May-14 12:28N 37°42' E 024°54'920.0
2017-May-14 12:01N 37°36' E 025°02'613.0
2017-May-14 11:30N 37°32' E 025°09'611.8
2017-May-14 11:00N 37°29' E 025°16'3 6.5
2017-May-14 10:30N 37°28' E 025°19'0 0.0
2017-May-14 10:00N 37°28' E 025°19'0 0.0
2017-May-14 09:30N 37°28' E 025°19'611.6
2017-May-14 09:00N 37°30' E 025°13'4 8.5
2017-May-14 08:31N 37°32' E 025°08'5416.5
2017-May-14 05:14N 37°60' E 024°09'419.6
2017-May-14 05:00N 38°01' E 024°03'2 0.2
2017-May-13 15:23N 38°01' E 024°01'4415.5
2017-May-13 12:31N 37°44' E 024°52'  

Dump ship's entire track history